Mattson, Mississippi
Current Conditions -  °F | °C
As of 12:15 AM on Thursday 29 Jan 2015 (Local Time) from KCKM Reporting Station
Few Clouds Few Clouds  
Wind Chill: 50°   Ceiling: Unl
Heat Index: 50°   Visibility: 10mi
Dew Point: 39°   Wind: 13mph
Humidity: 66%   Direction: 170°S
Pressure: 30.1"   Gusts: NA
Location:  34.1°N, 90.51°W
Report Text: KCKM 290615Z AUTO 17011KT 10SM FEW030 10/04 A3010 RMK AO1
Loading
Personal Weather Stations






























Interactive Weather Map New forecast layout! Learn more

10-Day Weather Forecast

Advertisements
Track Severe Weather on mobile